Terminal Aerodrome Forecast
Issued by NWS Cleveland, OH

Home | Current Version | Previous Version | Graphics & Text | Print | Product List | Glossary On
Versions: 1 2 3 4 5 6 7 8 9 10 11 12 13 14 15 16 17
511
FTUS41 KCLE 211130
TAFERI
TAF
KERI 211130Z 2112/2212 19007KT P6SM SCT250
     FM211800 27009KT P6SM FEW050 SCT250
     FM220100 20009KT P6SM FEW060 BKN250
     FM220800 20011KT P6SM VCSH SCT050 BKN120=

USA.gov is the U.S. government's official web portal to all federal, state and local government web resources and services.